sensor_id;sensor_type;location;lat;lon;timestamp;P1;durP1;ratioP1;P2;durP2;ratioP2
7933;SDS011;4012;48.896;9.192;2023-08-24T00:01:32;8.43;;;4.77;;
7933;SDS011;4012;48.896;9.192;2023-08-24T00:03:57;11.60;;;4.53;;
7933;SDS011;4012;48.896;9.192;2023-08-24T00:06:23;9.87;;;5.40;;
7933;SDS011;4012;48.896;9.192;2023-08-24T00:08:49;15.20;;;5.03;;
7933;SDS011;4012;48.896;9.192;2023-08-24T00:11:14;6.83;;;4.87;;
7933;SDS011;4012;48.896;9.192;2023-08-24T00:13:41;7.53;;;5.27;;
7933;SDS011;4012;48.896;9.192;2023-08-24T00:16:13;9.20;;;5.30;;
7933;SDS011;4012;48.896;9.192;2023-08-24T00:18:42;5.20;;;4.70;;
7933;SDS011;4012;48.896;9.192;2023-08-24T00:21:08;7.27;;;5.27;;
7933;SDS011;4012;48.896;9.192;2023-08-24T00:23:34;7.90;;;5.30;;
7933;SDS011;4012;48.896;9.192;2023-08-24T00:25:59;6.77;;;5.23;;
7933;SDS011;4012;48.896;9.192;2023-08-24T00:28:25;9.73;;;5.60;;
7933;SDS011;4012;48.896;9.192;2023-08-24T00:30:51;6.97;;;5.20;;
7933;SDS011;4012;48.896;9.192;2023-08-24T00:33:17;8.10;;;5.37;;
7933;SDS011;4012;48.896;9.192;2023-08-24T00:35:42;5.87;;;4.70;;
7933;SDS011;4012;48.896;9.192;2023-08-24T00:38:08;6.70;;;5.03;;
7933;SDS011;4012;48.896;9.192;2023-08-24T00:40:34;7.53;;;4.90;;
7933;SDS011;4012;48.896;9.192;2023-08-24T00:42:59;7.10;;;4.70;;
7933;SDS011;4012;48.896;9.192;2023-08-24T00:45:25;12.77;;;5.07;;
7933;SDS011;4012;48.896;9.192;2023-08-24T00:47:51;6.37;;;5.07;;
7933;SDS011;4012;48.896;9.192;2023-08-24T00:50:17;11.97;;;4.60;;
7933;SDS011;4012;48.896;9.192;2023-08-24T00:52:43;9.13;;;4.80;;
7933;SDS011;4012;48.896;9.192;2023-08-24T00:55:09;7.33;;;4.30;;
7933;SDS011;4012;48.896;9.192;2023-08-24T00:57:36;4.87;;;4.37;;
7933;SDS011;4012;48.896;9.192;2023-08-24T01:00:03;6.13;;;4.37;;
7933;SDS011;4012;48.896;9.192;2023-08-24T01:02:31;7.83;;;4.47;;
7933;SDS011;4012;48.896;9.192;2023-08-24T01:04:58;7.27;;;3.90;;
7933;SDS011;4012;48.896;9.192;2023-08-24T01:07:24;6.13;;;3.77;;
7933;SDS011;4012;48.896;9.192;2023-08-24T01:09:50;4.70;;;4.20;;
7933;SDS011;4012;48.896;9.192;2023-08-24T01:17:33;9.40;;;4.63;;
7933;SDS011;4012;48.896;9.192;2023-08-24T01:20:01;5.43;;;4.33;;
7933;SDS011;4012;48.896;9.192;2023-08-24T01:22:34;11.53;;;4.70;;
7933;SDS011;4012;48.896;9.192;2023-08-24T01:27:54;6.03;;;4.80;;
7933;SDS011;4012;48.896;9.192;2023-08-24T01:30:20;8.97;;;4.33;;
7933;SDS011;4012;48.896;9.192;2023-08-24T01:32:46;5.87;;;4.10;;
7933;SDS011;4012;48.896;9.192;2023-08-24T01:35:12;8.97;;;4.20;;
7933;SDS011;4012;48.896;9.192;2023-08-24T01:37:37;6.60;;;3.77;;
7933;SDS011;4012;48.896;9.192;2023-08-24T01:40:12;4.97;;;4.17;;
7933;SDS011;4012;48.896;9.192;2023-08-24T01:45:16;8.10;;;4.10;;
7933;SDS011;4012;48.896;9.192;2023-08-24T01:47:44;4.20;;;3.80;;
7933;SDS011;4012;48.896;9.192;2023-08-24T01:50:12;9.77;;;4.33;;
7933;SDS011;4012;48.896;9.192;2023-08-24T01:52:38;9.73;;;4.90;;
7933;SDS011;4012;48.896;9.192;2023-08-24T01:55:04;4.80;;;4.23;;
7933;SDS011;4012;48.896;9.192;2023-08-24T01:57:30;10.70;;;5.30;;
7933;SDS011;4012;48.896;9.192;2023-08-24T01:59:56;7.30;;;4.97;;
7933;SDS011;4012;48.896;9.192;2023-08-24T02:02:21;6.90;;;4.77;;
7933;SDS011;4012;48.896;9.192;2023-08-24T02:04:48;6.53;;;4.60;;
7933;SDS011;4012;48.896;9.192;2023-08-24T02:07:14;7.00;;;5.17;;
7933;SDS011;4012;48.896;9.192;2023-08-24T02:09:39;7.23;;;5.17;;
7933;SDS011;4012;48.896;9.192;2023-08-24T02:12:05;8.83;;;5.93;;
7933;SDS011;4012;48.896;9.192;2023-08-24T02:14:30;8.10;;;4.83;;
7933;SDS011;4012;48.896;9.192;2023-08-24T02:16:56;5.73;;;5.23;;
7933;SDS011;4012;48.896;9.192;2023-08-24T02:19:21;7.00;;;5.40;;
7933;SDS011;4012;48.896;9.192;2023-08-24T02:21:47;6.30;;;5.17;;
7933;SDS011;4012;48.896;9.192;2023-08-24T02:24:13;7.13;;;5.43;;
7933;SDS011;4012;48.896;9.192;2023-08-24T02:26:38;9.00;;;5.87;;
7933;SDS011;4012;48.896;9.192;2023-08-24T02:29:04;7.83;;;5.70;;
7933;SDS011;4012;48.896;9.192;2023-08-24T02:31:29;7.03;;;5.97;;
7933;SDS011;4012;48.896;9.192;2023-08-24T02:33:55;8.43;;;6.03;;
7933;SDS011;4012;48.896;9.192;2023-08-24T02:36:21;7.57;;;6.33;;
7933;SDS011;4012;48.896;9.192;2023-08-24T02:38:47;5.90;;;5.20;;
7933;SDS011;4012;48.896;9.192;2023-08-24T02:41:12;8.43;;;5.30;;
7933;SDS011;4012;48.896;9.192;2023-08-24T02:43:39;6.90;;;6.30;;
7933;SDS011;4012;48.896;9.192;2023-08-24T02:46:06;7.87;;;6.13;;
7933;SDS011;4012;48.896;9.192;2023-08-24T02:48:32;7.93;;;5.53;;
7933;SDS011;4012;48.896;9.192;2023-08-24T02:50:59;6.33;;;5.40;;
7933;SDS011;4012;48.896;9.192;2023-08-24T02:53:25;6.97;;;5.77;;
7933;SDS011;4012;48.896;9.192;2023-08-24T02:55:52;8.70;;;5.53;;
7933;SDS011;4012;48.896;9.192;2023-08-24T02:58:18;11.90;;;5.97;;
7933;SDS011;4012;48.896;9.192;2023-08-24T03:00:44;7.23;;;6.33;;
7933;SDS011;4012;48.896;9.192;2023-08-24T03:03:10;8.27;;;5.80;;
7933;SDS011;4012;48.896;9.192;2023-08-24T03:05:35;8.43;;;5.70;;
7933;SDS011;4012;48.896;9.192;2023-08-24T03:08:01;6.40;;;5.80;;
7933;SDS011;4012;48.896;9.192;2023-08-24T03:10:29;8.37;;;5.80;;
7933;SDS011;4012;48.896;9.192;2023-08-24T03:12:55;6.73;;;5.67;;
7933;SDS011;4012;48.896;9.192;2023-08-24T03:15:20;7.67;;;5.67;;
7933;SDS011;4012;48.896;9.192;2023-08-24T03:17:46;6.67;;;5.37;;
7933;SDS011;4012;48.896;9.192;2023-08-24T03:20:12;8.23;;;5.83;;
7933;SDS011;4012;48.896;9.192;2023-08-24T03:22:38;6.43;;;5.63;;
7933;SDS011;4012;48.896;9.192;2023-08-24T03:25:05;6.00;;;5.40;;
7933;SDS011;4012;48.896;9.192;2023-08-24T03:27:31;8.10;;;6.33;;
7933;SDS011;4012;48.896;9.192;2023-08-24T03:29:57;9.57;;;5.87;;
7933;SDS011;4012;48.896;9.192;2023-08-24T03:32:23;9.20;;;6.47;;
7933;SDS011;4012;48.896;9.192;2023-08-24T03:34:49;6.40;;;5.47;;
7933;SDS011;4012;48.896;9.192;2023-08-24T03:37:14;7.37;;;5.80;;
7933;SDS011;4012;48.896;9.192;2023-08-24T03:39:40;8.70;;;6.13;;
7933;SDS011;4012;48.896;9.192;2023-08-24T03:42:06;7.97;;;5.67;;
7933;SDS011;4012;48.896;9.192;2023-08-24T03:44:32;6.83;;;5.27;;
7933;SDS011;4012;48.896;9.192;2023-08-24T03:46:58;8.43;;;5.90;;
7933;SDS011;4012;48.896;9.192;2023-08-24T03:49:23;7.60;;;5.50;;
7933;SDS011;4012;48.896;9.192;2023-08-24T03:51:51;10.03;;;6.37;;
7933;SDS011;4012;48.896;9.192;2023-08-24T03:54:16;6.40;;;5.47;;
7933;SDS011;4012;48.896;9.192;2023-08-24T03:56:42;7.13;;;5.50;;
7933;SDS011;4012;48.896;9.192;2023-08-24T03:59:08;6.73;;;5.40;;
7933;SDS011;4012;48.896;9.192;2023-08-24T04:01:33;6.77;;;5.57;;
7933;SDS011;4012;48.896;9.192;2023-08-24T04:03:59;5.90;;;5.40;;
7933;SDS011;4012;48.896;9.192;2023-08-24T04:06:24;7.43;;;5.67;;
7933;SDS011;4012;48.896;9.192;2023-08-24T04:08:50;7.20;;;5.53;;
7933;SDS011;4012;48.896;9.192;2023-08-24T04:11:15;7.60;;;6.00;;
7933;SDS011;4012;48.896;9.192;2023-08-24T04:13:41;6.83;;;5.87;;
7933;SDS011;4012;48.896;9.192;2023-08-24T04:16:06;7.87;;;5.37;;
7933;SDS011;4012;48.896;9.192;2023-08-24T04:18:32;7.67;;;5.13;;
7933;SDS011;4012;48.896;9.192;2023-08-24T04:20:58;7.20;;;4.80;;
7933;SDS011;4012;48.896;9.192;2023-08-24T04:23:24;5.50;;;4.73;;
7933;SDS011;4012;48.896;9.192;2023-08-24T04:25:51;8.00;;;4.67;;
7933;SDS011;4012;48.896;9.192;2023-08-24T04:28:18;6.00;;;4.33;;
7933;SDS011;4012;48.896;9.192;2023-08-24T04:30:53;5.80;;;4.20;;
7933;SDS011;4012;48.896;9.192;2023-08-24T04:33:20;6.30;;;4.27;;
7933;SDS011;4012;48.896;9.192;2023-08-24T04:35:47;4.57;;;4.13;;
7933;SDS011;4012;48.896;9.192;2023-08-24T04:38:13;7.43;;;4.60;;
7933;SDS011;4012;48.896;9.192;2023-08-24T04:40:48;5.60;;;4.60;;
7933;SDS011;4012;48.896;9.192;2023-08-24T04:43:19;6.23;;;4.53;;
7933;SDS011;4012;48.896;9.192;2023-08-24T04:45:47;7.10;;;4.47;;
7933;SDS011;4012;48.896;9.192;2023-08-24T04:48:13;7.23;;;4.80;;
7933;SDS011;4012;48.896;9.192;2023-08-24T04:50:41;8.10;;;4.87;;
7933;SDS011;4012;48.896;9.192;2023-08-24T04:53:08;8.07;;;4.87;;
7933;SDS011;4012;48.896;9.192;2023-08-24T04:55:33;9.60;;;4.70;;
7933;SDS011;4012;48.896;9.192;2023-08-24T04:57:59;6.47;;;4.50;;
7933;SDS011;4012;48.896;9.192;2023-08-24T05:00:24;4.97;;;4.43;;
7933;SDS011;4012;48.896;9.192;2023-08-24T05:02:50;7.93;;;4.80;;
7933;SDS011;4012;48.896;9.192;2023-08-24T05:05:16;6.67;;;4.80;;
7933;SDS011;4012;48.896;9.192;2023-08-24T05:07:42;7.13;;;4.63;;
7933;SDS011;4012;48.896;9.192;2023-08-24T05:10:08;7.93;;;4.50;;
7933;SDS011;4012;48.896;9.192;2023-08-24T05:12:34;5.53;;;3.70;;
7933;SDS011;4012;48.896;9.192;2023-08-24T05:15:03;7.57;;;4.07;;
7933;SDS011;4012;48.896;9.192;2023-08-24T05:17:29;5.10;;;4.10;;
7933;SDS011;4012;48.896;9.192;2023-08-24T05:19:57;6.33;;;4.33;;
7933;SDS011;4012;48.896;9.192;2023-08-24T05:22:23;8.27;;;4.00;;
7933;SDS011;4012;48.896;9.192;2023-08-24T05:24:48;6.90;;;4.27;;
7933;SDS011;4012;48.896;9.192;2023-08-24T05:27:14;9.83;;;3.93;;
7933;SDS011;4012;48.896;9.192;2023-08-24T05:29:40;5.87;;;4.10;;
7933;SDS011;4012;48.896;9.192;2023-08-24T05:32:06;9.17;;;4.43;;
7933;SDS011;4012;48.896;9.192;2023-08-24T05:34:32;6.23;;;4.93;;
7933;SDS011;4012;48.896;9.192;2023-08-24T05:36:58;5.97;;;4.30;;
7933;SDS011;4012;48.896;9.192;2023-08-24T05:39:23;5.13;;;4.00;;
7933;SDS011;4012;48.896;9.192;2023-08-24T05:41:50;7.20;;;4.60;;
7933;SDS011;4012;48.896;9.192;2023-08-24T05:44:17;7.07;;;4.93;;
7933;SDS011;4012;48.896;9.192;2023-08-24T05:46:43;10.03;;;4.03;;
7933;SDS011;4012;48.896;9.192;2023-08-24T05:49:09;6.17;;;4.00;;
7933;SDS011;4012;48.896;9.192;2023-08-24T05:51:34;5.80;;;4.23;;
7933;SDS011;4012;48.896;9.192;2023-08-24T05:54:00;5.80;;;4.00;;
7933;SDS011;4012;48.896;9.192;2023-08-24T05:56:25;7.10;;;4.23;;
7933;SDS011;4012;48.896;9.192;2023-08-24T05:58:51;6.53;;;4.60;;
7933;SDS011;4012;48.896;9.192;2023-08-24T06:01:17;9.33;;;4.17;;
7933;SDS011;4012;48.896;9.192;2023-08-24T06:03:42;5.93;;;3.80;;
7933;SDS011;4012;48.896;9.192;2023-08-24T06:06:08;7.57;;;4.30;;
7933;SDS011;4012;48.896;9.192;2023-08-24T06:08:34;7.43;;;4.07;;
7933;SDS011;4012;48.896;9.192;2023-08-24T06:11:00;11.50;;;4.00;;
7933;SDS011;4012;48.896;9.192;2023-08-24T06:13:26;5.50;;;3.80;;
7933;SDS011;4012;48.896;9.192;2023-08-24T06:15:52;10.10;;;4.03;;
7933;SDS011;4012;48.896;9.192;2023-08-24T06:18:19;7.67;;;3.90;;
7933;SDS011;4012;48.896;9.192;2023-08-24T06:20:45;6.43;;;3.80;;
7933;SDS011;4012;48.896;9.192;2023-08-24T06:23:13;6.53;;;4.20;;
7933;SDS011;4012;48.896;9.192;2023-08-24T06:25:41;8.13;;;4.00;;
7933;SDS011;4012;48.896;9.192;2023-08-24T06:28:06;7.03;;;3.47;;
7933;SDS011;4012;48.896;9.192;2023-08-24T06:30:36;6.20;;;4.23;;
7933;SDS011;4012;48.896;9.192;2023-08-24T06:33:12;7.07;;;4.23;;
7933;SDS011;4012;48.896;9.192;2023-08-24T06:35:38;8.03;;;3.60;;
7933;SDS011;4012;48.896;9.192;2023-08-24T06:38:04;13.77;;;4.13;;
7933;SDS011;4012;48.896;9.192;2023-08-24T06:40:30;5.97;;;3.73;;
7933;SDS011;4012;48.896;9.192;2023-08-24T06:42:56;8.43;;;4.30;;
7933;SDS011;4012;48.896;9.192;2023-08-24T06:45:22;6.07;;;3.80;;
7933;SDS011;4012;48.896;9.192;2023-08-24T06:47:48;4.20;;;3.53;;
7933;SDS011;4012;48.896;9.192;2023-08-24T06:50:14;5.43;;;3.80;;
7933;SDS011;4012;48.896;9.192;2023-08-24T06:52:40;6.47;;;4.57;;
7933;SDS011;4012;48.896;9.192;2023-08-24T06:55:08;6.30;;;4.40;;
7933;SDS011;4012;48.896;9.192;2023-08-24T06:57:34;11.67;;;4.63;;
7933;SDS011;4012;48.896;9.192;2023-08-24T06:59:59;8.93;;;4.63;;
7933;SDS011;4012;48.896;9.192;2023-08-24T07:02:25;6.73;;;5.30;;
7933;SDS011;4012;48.896;9.192;2023-08-24T07:04:51;5.10;;;4.60;;
7933;SDS011;4012;48.896;9.192;2023-08-24T07:07:16;9.03;;;4.57;;
7933;SDS011;4012;48.896;9.192;2023-08-24T07:09:42;9.90;;;8.00;;
7933;SDS011;4012;48.896;9.192;2023-08-24T07:12:08;7.20;;;4.50;;
7933;SDS011;4012;48.896;9.192;2023-08-24T07:14:38;9.27;;;4.50;;
7933;SDS011;4012;48.896;9.192;2023-08-24T07:17:03;10.67;;;4.90;;
7933;SDS011;4012;48.896;9.192;2023-08-24T07:19:31;6.17;;;3.67;;
7933;SDS011;4012;48.896;9.192;2023-08-24T07:21:56;5.13;;;4.13;;
7933;SDS011;4012;48.896;9.192;2023-08-24T07:24:22;8.93;;;4.23;;
7933;SDS011;4012;48.896;9.192;2023-08-24T07:26:51;5.23;;;3.83;;
7933;SDS011;4012;48.896;9.192;2023-08-24T07:29:20;5.13;;;4.37;;
7933;SDS011;4012;48.896;9.192;2023-08-24T07:31:46;8.07;;;4.30;;
7933;SDS011;4012;48.896;9.192;2023-08-24T07:34:12;5.50;;;4.37;;
7933;SDS011;4012;48.896;9.192;2023-08-24T07:36:38;6.70;;;4.37;;
7933;SDS011;4012;48.896;9.192;2023-08-24T07:39:03;8.30;;;3.67;;
7933;SDS011;4012;48.896;9.192;2023-08-24T07:41:29;10.97;;;4.13;;
7933;SDS011;4012;48.896;9.192;2023-08-24T07:43:55;5.43;;;3.57;;
7933;SDS011;4012;48.896;9.192;2023-08-24T07:46:20;8.63;;;3.90;;
7933;SDS011;4012;48.896;9.192;2023-08-24T07:48:46;7.87;;;3.73;;
7933;SDS011;4012;48.896;9.192;2023-08-24T07:51:12;4.87;;;3.60;;
7933;SDS011;4012;48.896;9.192;2023-08-24T07:53:37;6.83;;;3.60;;
7933;SDS011;4012;48.896;9.192;2023-08-24T07:56:03;6.10;;;2.93;;
7933;SDS011;4012;48.896;9.192;2023-08-24T07:58:29;6.53;;;3.60;;
7933;SDS011;4012;48.896;9.192;2023-08-24T08:00:56;8.70;;;3.10;;
7933;SDS011;4012;48.896;9.192;2023-08-24T08:03:22;7.53;;;3.05;;
7933;SDS011;4012;48.896;9.192;2023-08-24T08:05:47;3.90;;;3.00;;
7933;SDS011;4012;48.896;9.192;2023-08-24T08:08:13;4.80;;;2.47;;
7933;SDS011;4012;48.896;9.192;2023-08-24T08:10:40;8.27;;;3.05;;
7933;SDS011;4012;48.896;9.192;2023-08-24T08:13:06;8.52;;;3.17;;
7933;SDS011;4012;48.896;9.192;2023-08-24T08:15:32;9.73;;;2.70;;
7933;SDS011;4012;48.896;9.192;2023-08-24T08:17:58;5.93;;;2.78;;
7933;SDS011;4012;48.896;9.192;2023-08-24T08:20:24;7.47;;;2.63;;
7933;SDS011;4012;48.896;9.192;2023-08-24T08:22:50;3.05;;;2.33;;
7933;SDS011;4012;48.896;9.192;2023-08-24T08:25:15;6.38;;;2.67;;
7933;SDS011;4012;48.896;9.192;2023-08-24T08:27:44;4.90;;;2.85;;
7933;SDS011;4012;48.896;9.192;2023-08-24T08:30:10;6.47;;;3.00;;
7933;SDS011;4012;48.896;9.192;2023-08-24T08:32:36;6.47;;;2.70;;
7933;SDS011;4012;48.896;9.192;2023-08-24T08:35:01;3.95;;;2.63;;
7933;SDS011;4012;48.896;9.192;2023-08-24T08:37:30;8.00;;;2.70;;
7933;SDS011;4012;48.896;9.192;2023-08-24T08:39:57;4.97;;;2.85;;
7933;SDS011;4012;48.896;9.192;2023-08-24T08:42:22;7.88;;;3.00;;
7933;SDS011;4012;48.896;9.192;2023-08-24T08:44:48;6.78;;;3.03;;
7933;SDS011;4012;48.896;9.192;2023-08-24T08:47:14;6.95;;;2.67;;
7933;SDS011;4012;48.896;9.192;2023-08-24T08:49:43;6.63;;;2.83;;
7933;SDS011;4012;48.896;9.192;2023-08-24T08:52:12;3.55;;;2.70;;
7933;SDS011;4012;48.896;9.192;2023-08-24T08:54:38;5.85;;;2.60;;
7933;SDS011;4012;48.896;9.192;2023-08-24T08:57:03;5.72;;;3.15;;
7933;SDS011;4012;48.896;9.192;2023-08-24T08:59:30;5.72;;;2.95;;
7933;SDS011;4012;48.896;9.192;2023-08-24T09:02:00;3.42;;;2.97;;
7933;SDS011;4012;48.896;9.192;2023-08-24T09:04:27;7.50;;;2.85;;
7933;SDS011;4012;48.896;9.192;2023-08-24T09:06:55;8.88;;;3.30;;
7933;SDS011;4012;48.896;9.192;2023-08-24T09:09:26;7.15;;;2.85;;
7933;SDS011;4012;48.896;9.192;2023-08-24T09:11:52;7.40;;;2.50;;
7933;SDS011;4012;48.896;9.192;2023-08-24T09:14:18;6.70;;;3.20;;
7933;SDS011;4012;48.896;9.192;2023-08-24T09:16:44;7.40;;;3.00;;
7933;SDS011;4012;48.896;9.192;2023-08-24T09:19:13;5.47;;;3.28;;
7933;SDS011;4012;48.896;9.192;2023-08-24T09:21:39;4.35;;;3.13;;
7933;SDS011;4012;48.896;9.192;2023-08-24T09:24:06;3.70;;;3.00;;
7933;SDS011;4012;48.896;9.192;2023-08-24T09:26:33;3.13;;;2.55;;
7933;SDS011;4012;48.896;9.192;2023-08-24T09:29:05;8.18;;;3.03;;
7933;SDS011;4012;48.896;9.192;2023-08-24T09:31:39;5.03;;;2.80;;
7933;SDS011;4012;48.896;9.192;2023-08-24T09:34:05;9.90;;;3.33;;
7933;SDS011;4012;48.896;9.192;2023-08-24T09:36:35;7.53;;;3.20;;
7933;SDS011;4012;48.896;9.192;2023-08-24T09:39:02;10.07;;;3.13;;
7933;SDS011;4012;48.896;9.192;2023-08-24T09:44:10;7.50;;;2.70;;
7933;SDS011;4012;48.896;9.192;2023-08-24T09:46:37;5.60;;;2.47;;
7933;SDS011;4012;48.896;9.192;2023-08-24T09:49:04;3.28;;;2.60;;
7933;SDS011;4012;48.896;9.192;2023-08-24T09:51:30;4.70;;;2.95;;
7933;SDS011;4012;48.896;9.192;2023-08-24T09:53:58;8.18;;;2.95;;
7933;SDS011;4012;48.896;9.192;2023-08-24T09:56:37;3.22;;;2.80;;
7933;SDS011;4012;48.896;9.192;2023-08-24T09:59:17;5.45;;;3.10;;
7933;SDS011;4012;48.896;9.192;2023-08-24T10:01:46;4.53;;;2.90;;
7933;SDS011;4012;48.896;9.192;2023-08-24T10:04:14;8.70;;;2.90;;
7933;SDS011;4012;48.896;9.192;2023-08-24T10:06:42;4.95;;;2.90;;
7933;SDS011;4012;48.896;9.192;2023-08-24T10:09:11;4.90;;;3.00;;
7933;SDS011;4012;48.896;9.192;2023-08-24T10:11:48;6.75;;;3.45;;
7933;SDS011;4012;48.896;9.192;2023-08-24T10:16:55;6.18;;;3.20;;
7933;SDS011;4012;48.896;9.192;2023-08-24T10:19:21;6.72;;;2.65;;
7933;SDS011;4012;48.896;9.192;2023-08-24T10:21:48;8.57;;;3.40;;
7933;SDS011;4012;48.896;9.192;2023-08-24T10:24:21;5.78;;;3.10;;
7933;SDS011;4012;48.896;9.192;2023-08-24T10:26:46;6.22;;;3.50;;
7933;SDS011;4012;48.896;9.192;2023-08-24T10:29:13;5.78;;;3.40;;
7933;SDS011;4012;48.896;9.192;2023-08-24T10:31:39;4.63;;;3.17;;
7933;SDS011;4012;48.896;9.192;2023-08-24T10:34:06;6.25;;;3.40;;
7933;SDS011;4012;48.896;9.192;2023-08-24T10:36:33;3.97;;;3.38;;
7933;SDS011;4012;48.896;9.192;2023-08-24T10:39:02;6.20;;;3.40;;
7933;SDS011;4012;48.896;9.192;2023-08-24T10:41:52;5.55;;;3.10;;
7933;SDS011;4012;48.896;9.192;2023-08-24T10:44:21;7.65;;;3.13;;
7933;SDS011;4012;48.896;9.192;2023-08-24T10:52:23;4.78;;;3.40;;
7933;SDS011;4012;48.896;9.192;2023-08-24T10:54:55;4.72;;;3.10;;
7933;SDS011;4012;48.896;9.192;2023-08-24T10:57:24;5.78;;;3.58;;
7933;SDS011;4012;48.896;9.192;2023-08-24T10:59:57;4.43;;;3.28;;
7933;SDS011;4012;48.896;9.192;2023-08-24T11:02:42;5.05;;;3.30;;
7933;SDS011;4012;48.896;9.192;2023-08-24T11:05:14;9.13;;;4.10;;
7933;SDS011;4012;48.896;9.192;2023-08-24T11:07:51;4.50;;;3.50;;
7933;SDS011;4012;48.896;9.192;2023-08-24T11:10:22;7.57;;;3.80;;
7933;SDS011;4012;48.896;9.192;2023-08-24T11:15:31;6.53;;;4.03;;
7933;SDS011;4012;48.896;9.192;2023-08-24T11:20:49;4.17;;;3.60;;
7933;SDS011;4012;48.896;9.192;2023-08-24T11:23:24;4.17;;;3.57;;
7933;SDS011;4012;48.896;9.192;2023-08-24T11:25:51;7.57;;;4.63;;
7933;SDS011;4012;48.896;9.192;2023-08-24T11:28:21;5.00;;;3.60;;
7933;SDS011;4012;48.896;9.192;2023-08-24T11:30:48;5.87;;;4.07;;
7933;SDS011;4012;48.896;9.192;2023-08-24T11:33:15;8.13;;;3.63;;
7933;SDS011;4012;48.896;9.192;2023-08-24T11:35:51;5.87;;;3.90;;
7933;SDS011;4012;48.896;9.192;2023-08-24T11:38:18;5.67;;;4.20;;
7933;SDS011;4012;48.896;9.192;2023-08-24T11:40:44;6.50;;;4.00;;
7933;SDS011;4012;48.896;9.192;2023-08-24T11:43:09;7.90;;;4.33;;
7933;SDS011;4012;48.896;9.192;2023-08-24T11:45:45;3.77;;;3.47;;
7933;SDS011;4012;48.896;9.192;2023-08-24T11:48:11;7.10;;;4.10;;
7933;SDS011;4012;48.896;9.192;2023-08-24T11:50:37;9.70;;;4.03;;
7933;SDS011;4012;48.896;9.192;2023-08-24T11:53:03;9.40;;;3.83;;
7933;SDS011;4012;48.896;9.192;2023-08-24T11:55:32;7.17;;;3.87;;
7933;SDS011;4012;48.896;9.192;2023-08-24T11:57:57;6.97;;;4.07;;
7933;SDS011;4012;48.896;9.192;2023-08-24T12:00:23;7.13;;;3.80;;
7933;SDS011;4012;48.896;9.192;2023-08-24T12:02:49;5.43;;;4.00;;
7933;SDS011;4012;48.896;9.192;2023-08-24T12:05:22;5.87;;;4.13;;
7933;SDS011;4012;48.896;9.192;2023-08-24T12:07:48;9.97;;;4.30;;
7933;SDS011;4012;48.896;9.192;2023-08-24T12:10:18;4.57;;;4.17;;
7933;SDS011;4012;48.896;9.192;2023-08-24T12:12:44;4.50;;;3.83;;
7933;SDS011;4012;48.896;9.192;2023-08-24T12:15:16;6.00;;;4.10;;
7933;SDS011;4012;48.896;9.192;2023-08-24T12:17:45;8.23;;;5.17;;
7933;SDS011;4012;48.896;9.192;2023-08-24T12:20:18;5.07;;;4.10;;
7933;SDS011;4012;48.896;9.192;2023-08-24T12:22:50;5.63;;;4.37;;
7933;SDS011;4012;48.896;9.192;2023-08-24T12:25:22;4.43;;;4.03;;
7933;SDS011;4012;48.896;9.192;2023-08-24T12:27:49;4.83;;;4.20;;
7933;SDS011;4012;48.896;9.192;2023-08-24T12:30:18;10.23;;;4.40;;
7933;SDS011;4012;48.896;9.192;2023-08-24T12:32:48;9.47;;;4.60;;
7933;SDS011;4012;48.896;9.192;2023-08-24T12:35:15;7.27;;;4.23;;
7933;SDS011;4012;48.896;9.192;2023-08-24T12:37:41;5.90;;;4.60;;
7933;SDS011;4012;48.896;9.192;2023-08-24T12:40:07;8.20;;;4.40;;
7933;SDS011;4012;48.896;9.192;2023-08-24T12:42:33;8.73;;;4.10;;
7933;SDS011;4012;48.896;9.192;2023-08-24T12:44:59;7.10;;;4.00;;
7933;SDS011;4012;48.896;9.192;2023-08-24T12:47:24;8.33;;;4.20;;
7933;SDS011;4012;48.896;9.192;2023-08-24T12:49:50;5.50;;;4.20;;
7933;SDS011;4012;48.896;9.192;2023-08-24T12:52:17;6.67;;;4.40;;
7933;SDS011;4012;48.896;9.192;2023-08-24T12:54:43;4.30;;;3.90;;
7933;SDS011;4012;48.896;9.192;2023-08-24T12:57:09;5.03;;;4.40;;
7933;SDS011;4012;48.896;9.192;2023-08-24T12:59:34;6.40;;;4.07;;
7933;SDS011;4012;48.896;9.192;2023-08-24T13:02:01;4.53;;;4.13;;
7933;SDS011;4012;48.896;9.192;2023-08-24T13:04:27;8.00;;;4.28;;
7933;SDS011;4012;48.896;9.192;2023-08-24T13:06:54;4.27;;;3.87;;
7933;SDS011;4012;48.896;9.192;2023-08-24T13:09:20;7.80;;;4.57;;
7933;SDS011;4012;48.896;9.192;2023-08-24T13:11:46;5.60;;;3.88;;
7933;SDS011;4012;48.896;9.192;2023-08-24T13:14:13;5.55;;;4.20;;
7933;SDS011;4012;48.896;9.192;2023-08-24T13:16:39;7.38;;;4.45;;
7933;SDS011;4012;48.896;9.192;2023-08-24T13:19:04;8.35;;;4.22;;
7933;SDS011;4012;48.896;9.192;2023-08-24T13:21:30;7.65;;;4.57;;
7933;SDS011;4012;48.896;9.192;2023-08-24T13:23:55;6.93;;;3.90;;
7933;SDS011;4012;48.896;9.192;2023-08-24T13:26:21;6.13;;;3.83;;
7933;SDS011;4012;48.896;9.192;2023-08-24T13:28:48;8.85;;;4.35;;
7933;SDS011;4012;48.896;9.192;2023-08-24T13:31:14;7.57;;;3.70;;
7933;SDS011;4012;48.896;9.192;2023-08-24T13:33:39;7.53;;;3.97;;
7933;SDS011;4012;48.896;9.192;2023-08-24T13:36:05;5.00;;;4.00;;
7933;SDS011;4012;48.896;9.192;2023-08-24T13:38:31;7.60;;;4.10;;
7933;SDS011;4012;48.896;9.192;2023-08-24T13:40:56;6.40;;;4.00;;
7933;SDS011;4012;48.896;9.192;2023-08-24T13:43:28;6.05;;;4.45;;
7933;SDS011;4012;48.896;9.192;2023-08-24T13:46:33;10.35;;;4.43;;
7933;SDS011;4012;48.896;9.192;2023-08-24T13:48:58;9.45;;;4.55;;
7933;SDS011;4012;48.896;9.192;2023-08-24T13:51:24;6.90;;;3.97;;
7933;SDS011;4012;48.896;9.192;2023-08-24T13:53:49;8.18;;;4.68;;
7933;SDS011;4012;48.896;9.192;2023-08-24T13:56:15;16.83;;;4.93;;
7933;SDS011;4012;48.896;9.192;2023-08-24T13:58:41;9.95;;;4.40;;
7933;SDS011;4012;48.896;9.192;2023-08-24T14:01:06;7.88;;;4.25;;
7933;SDS011;4012;48.896;9.192;2023-08-24T14:03:32;10.35;;;4.28;;
7933;SDS011;4012;48.896;9.192;2023-08-24T14:05:59;14.43;;;4.50;;
7933;SDS011;4012;48.896;9.192;2023-08-24T14:08:25;14.38;;;4.95;;
7933;SDS011;4012;48.896;9.192;2023-08-24T14:10:51;11.50;;;4.78;;
7933;SDS011;4012;48.896;9.192;2023-08-24T14:13:17;11.82;;;4.13;;
7933;SDS011;4012;48.896;9.192;2023-08-24T14:15:43;8.43;;;4.32;;
7933;SDS011;4012;48.896;9.192;2023-08-24T14:18:11;18.08;;;4.60;;
7933;SDS011;4012;48.896;9.192;2023-08-24T14:20:37;7.18;;;4.13;;
7933;SDS011;4012;48.896;9.192;2023-08-24T14:23:04;7.22;;;3.85;;
7933;SDS011;4012;48.896;9.192;2023-08-24T14:25:29;9.35;;;4.30;;
7933;SDS011;4012;48.896;9.192;2023-08-24T14:27:55;14.82;;;5.03;;
7933;SDS011;4012;48.896;9.192;2023-08-24T14:30:20;8.45;;;4.80;;
7933;SDS011;4012;48.896;9.192;2023-08-24T14:32:46;10.85;;;4.57;;
7933;SDS011;4012;48.896;9.192;2023-08-24T14:35:12;7.30;;;4.00;;
7933;SDS011;4012;48.896;9.192;2023-08-24T14:37:37;6.45;;;4.43;;
7933;SDS011;4012;48.896;9.192;2023-08-24T14:40:04;11.40;;;4.40;;
7933;SDS011;4012;48.896;9.192;2023-08-24T14:42:30;12.82;;;4.43;;
7933;SDS011;4012;48.896;9.192;2023-08-24T14:44:56;6.90;;;4.93;;
7933;SDS011;4012;48.896;9.192;2023-08-24T14:47:22;5.05;;;4.40;;
7933;SDS011;4012;48.896;9.192;2023-08-24T14:49:47;10.40;;;6.30;;
7933;SDS011;4012;48.896;9.192;2023-08-24T14:52:13;7.83;;;5.07;;
7933;SDS011;4012;48.896;9.192;2023-08-24T14:54:39;10.17;;;4.80;;
7933;SDS011;4012;48.896;9.192;2023-08-24T14:57:05;7.13;;;4.50;;
7933;SDS011;4012;48.896;9.192;2023-08-24T14:59:31;8.50;;;4.87;;
7933;SDS011;4012;48.896;9.192;2023-08-24T15:01:57;9.87;;;4.77;;
7933;SDS011;4012;48.896;9.192;2023-08-24T15:04:25;30.73;;;4.63;;
7933;SDS011;4012;48.896;9.192;2023-08-24T15:06:52;20.50;;;5.53;;
7933;SDS011;4012;48.896;9.192;2023-08-24T15:09:17;6.63;;;3.73;;
7933;SDS011;4012;48.896;9.192;2023-08-24T15:11:43;13.80;;;6.40;;
7933;SDS011;4012;48.896;9.192;2023-08-24T15:14:08;15.47;;;9.60;;
7933;SDS011;4012;48.896;9.192;2023-08-24T15:16:34;10.00;;;7.20;;
7933;SDS011;4012;48.896;9.192;2023-08-24T15:19:00;9.23;;;4.97;;
7933;SDS011;4012;48.896;9.192;2023-08-24T15:21:26;7.47;;;4.33;;
7933;SDS011;4012;48.896;9.192;2023-08-24T15:23:53;7.40;;;4.37;;
7933;SDS011;4012;48.896;9.192;2023-08-24T15:26:19;5.50;;;3.60;;
7933;SDS011;4012;48.896;9.192;2023-08-24T15:31:40;5.40;;;3.50;;
7933;SDS011;4012;48.896;9.192;2023-08-24T15:34:07;7.67;;;3.37;;
7933;SDS011;4012;48.896;9.192;2023-08-24T15:36:33;7.10;;;4.17;;
7933;SDS011;4012;48.896;9.192;2023-08-24T15:38:58;4.73;;;2.57;;
7933;SDS011;4012;48.896;9.192;2023-08-24T15:41:24;7.43;;;3.20;;
7933;SDS011;4012;48.896;9.192;2023-08-24T15:43:50;5.93;;;2.60;;